createdAt,value
2022-08-02T00:01:36.747Z,0.63
2022-08-02T00:04:07.219Z,0.43
2022-08-02T00:06:38.039Z,0.40
2022-08-02T00:09:09.163Z,0.85
2022-08-02T00:11:40.095Z,0.65
2022-08-02T00:14:13.548Z,0.30
2022-08-02T00:16:44.302Z,0.47
2022-08-02T00:19:15.016Z,0.38
2022-08-02T00:21:45.670Z,0.50
2022-08-02T00:24:28.689Z,0.73
2022-08-02T00:27:14.162Z,0.30
2022-08-02T00:29:52.782Z,0.30
2022-08-02T00:32:32.124Z,0.60
2022-08-02T00:35:04.213Z,0.30
2022-08-02T00:37:35.049Z,0.30
2022-08-02T00:40:08.269Z,0.22
2022-08-02T00:42:42.338Z,0.22
2022-08-02T00:45:15.972Z,0.28
2022-08-02T00:47:53.393Z,1.42
2022-08-02T00:50:23.637Z,0.30
2022-08-02T00:55:42.181Z,0.28
2022-08-02T00:58:12.482Z,0.80
2022-08-02T01:00:49.423Z,0.20
2022-08-02T01:03:20.872Z,0.40
2022-08-02T01:06:02.421Z,0.30
2022-08-02T01:08:45.495Z,0.52
2022-08-02T01:11:17.109Z,0.52
2022-08-02T01:13:47.794Z,0.50
2022-08-02T01:16:25.966Z,0.50
2022-08-02T01:19:02.080Z,0.20
2022-08-02T01:21:43.588Z,0.32
2022-08-02T01:24:32.689Z,0.57
2022-08-02T01:27:37.217Z,0.63
2022-08-02T01:30:08.994Z,0.30
2022-08-02T01:32:45.100Z,0.50
2022-08-02T01:35:26.020Z,0.43
2022-08-02T01:38:05.889Z,0.20
2022-08-02T01:40:40.154Z,0.20
2022-08-02T01:43:13.911Z,0.20
2022-08-02T01:45:46.398Z,0.20
2022-08-02T01:48:22.179Z,0.43
2022-08-02T01:50:54.808Z,0.60
2022-08-02T01:53:29.812Z,0.30
2022-08-02T01:56:02.253Z,0.20
2022-08-02T01:58:45.153Z,0.32
2022-08-02T02:01:32.172Z,0.30
2022-08-02T02:04:06.863Z,0.30
2022-08-02T02:06:45.549Z,0.38
2022-08-02T02:09:17.696Z,0.32
2022-08-02T02:12:14.367Z,0.40
2022-08-02T02:14:51.678Z,0.40
2022-08-02T02:18:11.442Z,0.40
2022-08-02T02:20:40.217Z,0.30
2022-08-02T02:23:34.089Z,0.22
2022-08-02T02:26:29.790Z,0.50
2022-08-02T02:29:15.240Z,0.82
2022-08-02T02:32:13.278Z,0.70
2022-08-02T02:34:47.077Z,0.20
2022-08-02T02:37:24.168Z,0.43
2022-08-02T02:39:59.232Z,0.20
2022-08-02T02:42:36.240Z,0.22
2022-08-02T02:45:11.783Z,0.20
2022-08-02T02:47:44.023Z,0.22
2022-08-02T02:50:22.318Z,0.30
2022-08-02T02:52:54.901Z,0.20
2022-08-02T02:55:28.496Z,0.47
2022-08-02T02:58:00.499Z,0.20
2022-08-02T03:00:49.039Z,0.13
2022-08-02T03:03:21.233Z,0.20
2022-08-02T03:05:55.313Z,0.30
2022-08-02T03:08:32.417Z,0.10
2022-08-02T03:11:07.783Z,0.20
2022-08-02T03:13:39.522Z,0.25
2022-08-02T03:16:11.338Z,0.20
2022-08-02T03:18:44.101Z,0.10
2022-08-02T03:21:15.654Z,0.20
2022-08-02T03:23:47.212Z,0.22
2022-08-02T03:26:18.005Z,0.20
2022-08-02T03:28:48.390Z,0.30
2022-08-02T03:31:18.720Z,0.40
2022-08-02T03:33:49.359Z,0.20
2022-08-02T03:36:23.181Z,0.30
2022-08-02T03:39:00.453Z,0.50
2022-08-02T03:41:32.870Z,0.30
2022-08-02T03:44:04.365Z,0.20
2022-08-02T03:46:36.450Z,0.17
2022-08-02T03:49:07.851Z,0.50
2022-08-02T03:51:41.268Z,0.20
2022-08-02T03:54:12.631Z,0.20
2022-08-02T03:56:43.292Z,0.13
2022-08-02T03:59:15.379Z,0.10
2022-08-02T04:01:45.948Z,0.20
2022-08-02T04:04:16.228Z,0.20
2022-08-02T04:06:46.462Z,0.10
2022-08-02T04:09:17.479Z,0.15
2022-08-02T04:11:48.145Z,0.40
2022-08-02T04:14:20.142Z,0.30
2022-08-02T04:16:58.670Z,0.13
2022-08-02T04:19:48.347Z,0.10
2022-08-02T04:22:33.063Z,0.10
2022-08-02T04:25:06.669Z,0.20
2022-08-02T04:28:15.113Z,0.30
2022-08-02T04:30:34.158Z,0.30
2022-08-02T04:33:04.906Z,0.15
2022-08-02T04:35:35.240Z,0.10
2022-08-02T04:38:10.277Z,0.40
2022-08-02T04:40:41.225Z,0.30
2022-08-02T04:43:11.421Z,0.10
2022-08-02T04:45:41.759Z,0.10
2022-08-02T04:48:11.991Z,0.30
2022-08-02T04:50:42.153Z,0.13
2022-08-02T04:53:12.427Z,0.22
2022-08-02T04:55:42.752Z,0.30
2022-08-02T04:58:38.881Z,0.17
2022-08-02T05:01:04.525Z,0.17
2022-08-02T05:03:34.802Z,0.20
2022-08-02T05:06:19.174Z,0.20
2022-08-02T05:08:52.952Z,0.63
2022-08-02T05:11:36.227Z,0.28
2022-08-02T05:14:08.883Z,0.10
2022-08-02T05:16:39.238Z,0.10
2022-08-02T05:19:09.706Z,0.20
2022-08-02T05:21:40.023Z,0.52
2022-08-02T05:24:11.072Z,0.10
2022-08-02T05:26:41.285Z,0.10
2022-08-02T05:29:11.503Z,0.20
2022-08-02T05:31:42.147Z,0.70
2022-08-02T05:34:12.824Z,0.30
2022-08-02T05:36:43.705Z,0.20
2022-08-02T05:39:18.842Z,0.20
2022-08-02T05:41:50.653Z,0.30
2022-08-02T05:44:21.689Z,0.80
2022-08-02T05:46:53.258Z,1.15
2022-08-02T05:49:23.954Z,1.95
2022-08-02T05:52:02.571Z,1.90
2022-08-02T05:54:50.637Z,1.90
2022-08-02T05:57:40.677Z,1.67
2022-08-02T06:00:16.472Z,2.20
2022-08-02T06:02:47.113Z,2.13
2022-08-02T06:05:23.096Z,2.55
2022-08-02T06:07:53.698Z,2.67
2022-08-02T06:10:26.646Z,1.65
2022-08-02T06:13:00.482Z,1.30
2022-08-02T06:15:31.648Z,2.17
2022-08-02T06:18:04.501Z,1.48
2022-08-02T06:20:39.139Z,0.60
2022-08-02T06:23:13.800Z,0.30
2022-08-02T06:25:50.657Z,0.45
2022-08-02T06:28:25.534Z,0.17
2022-08-02T06:30:57.175Z,0.30
2022-08-02T06:33:28.205Z,0.50
2022-08-02T06:36:07.662Z,0.20
2022-08-02T06:38:49.796Z,0.20
2022-08-02T06:41:24.467Z,0.17
2022-08-02T06:44:33.787Z,0.20
2022-08-02T06:47:10.817Z,1.30
2022-08-02T06:49:51.574Z,0.70
2022-08-02T06:52:30.502Z,0.30
2022-08-02T06:55:07.315Z,0.63
2022-08-02T06:57:38.138Z,0.20
2022-08-02T07:00:12.239Z,0.30
2022-08-02T07:02:42.683Z,0.20
2022-08-02T07:05:13.864Z,0.40
2022-08-02T07:07:44.711Z,0.20
2022-08-02T07:17:30.191Z,0.30
2022-08-02T07:20:01.568Z,0.20
2022-08-02T07:22:34.657Z,0.68
2022-08-02T07:25:06.311Z,1.23
2022-08-02T07:30:47.213Z,2.60
2022-08-02T07:33:38.432Z,1.73
2022-08-02T07:36:16.841Z,1.40
2022-08-02T07:38:53.378Z,1.65
2022-08-02T07:41:25.072Z,1.50
2022-08-02T07:43:55.712Z,1.35
2022-08-02T07:46:26.410Z,0.60
2022-08-02T07:48:59.890Z,0.88
2022-08-02T07:51:30.821Z,1.05
2022-08-02T07:54:02.730Z,1.27
2022-08-02T07:56:34.525Z,1.70
2022-08-02T07:59:04.958Z,5.03
2022-08-02T08:01:35.315Z,8.30
2022-08-02T08:04:09.588Z,9.25
2022-08-02T08:06:40.019Z,12.50
2022-08-02T08:09:10.861Z,12.55
2022-08-02T08:11:41.407Z,8.20
2022-08-02T08:14:16.647Z,4.97
2022-08-02T08:16:47.468Z,3.22
2022-08-02T08:19:18.880Z,3.50
2022-08-02T08:21:49.129Z,2.50
2022-08-02T08:27:02.665Z,2.70
2022-08-02T08:29:36.886Z,2.72
2022-08-02T08:32:14.179Z,2.47
2022-08-02T08:37:31.473Z,1.92
2022-08-02T08:40:32.965Z,2.10
2022-08-02T08:43:12.855Z,1.77
2022-08-02T08:46:17.483Z,2.00
2022-08-02T08:55:17.254Z,2.78
2022-08-02T09:01:10.205Z,2.90
2022-08-02T09:03:51.429Z,2.50
2022-08-02T09:06:47.124Z,3.55
2022-08-02T09:09:21.187Z,8.13
2022-08-02T09:12:03.084Z,8.95
2022-08-02T09:17:39.506Z,3.88
2022-08-02T09:20:37.548Z,3.42
2022-08-02T09:27:04.458Z,3.35
2022-08-02T09:30:12.482Z,3.88
2022-08-02T09:36:07.327Z,4.90
2022-08-02T09:38:51.393Z,5.93
2022-08-02T09:41:34.893Z,7.63
2022-08-02T09:44:18.538Z,6.78
2022-08-02T09:46:55.358Z,5.88
2022-08-02T09:49:40.088Z,3.33
2022-08-02T10:01:34.187Z,3.13
2022-08-02T10:04:20.545Z,2.97
2022-08-02T10:07:08.939Z,2.92
2022-08-02T10:10:10.232Z,2.33
2022-08-02T10:15:50.623Z,2.30
2022-08-02T10:24:19.146Z,3.90
2022-08-02T10:30:00.443Z,5.05
2022-08-02T10:32:52.019Z,5.65
2022-08-02T10:36:08.289Z,5.50
2022-08-02T10:38:57.971Z,5.60
2022-08-02T10:45:17.449Z,6.13
2022-08-02T10:48:17.511Z,6.25
2022-08-02T10:51:38.517Z,5.03
2022-08-02T10:54:31.354Z,5.80
2022-08-02T11:00:56.131Z,4.30
2022-08-02T11:03:52.059Z,3.72
2022-08-02T11:06:26.080Z,3.72
2022-08-02T11:10:01.486Z,3.83
2022-08-02T11:13:17.673Z,4.35
2022-08-02T11:16:12.117Z,5.93
2022-08-02T11:18:58.529Z,5.15
2022-08-02T11:22:27.809Z,8.57
2022-08-02T11:25:06.251Z,9.07
2022-08-02T11:27:48.289Z,9.52
2022-08-02T11:30:40.938Z,8.82
2022-08-02T11:33:15.013Z,22.20
2022-08-02T11:36:06.749Z,21.30
2022-08-02T11:39:00.207Z,17.17
2022-08-02T11:41:46.022Z,12.98
2022-08-02T11:44:36.387Z,12.55
2022-08-02T11:47:12.252Z,8.73
2022-08-02T11:49:47.446Z,7.60
2022-08-02T11:55:45.887Z,4.55
2022-08-02T11:58:33.867Z,4.43
2022-08-02T12:04:24.867Z,4.43
2022-08-02T12:07:46.422Z,4.38
2022-08-02T12:10:27.193Z,4.45
2022-08-02T12:13:17.948Z,3.28
2022-08-02T12:16:08.687Z,4.40
2022-08-02T12:22:27.790Z,4.55
2022-08-02T12:25:33.349Z,4.78
2022-08-02T12:28:36.258Z,7.45
2022-08-02T12:35:09.798Z,12.10
2022-08-02T12:37:49.934Z,9.20
2022-08-02T12:41:30.462Z,8.32
2022-08-02T12:44:02.271Z,7.95
2022-08-02T12:46:47.084Z,6.55
2022-08-02T12:49:24.866Z,5.90
2022-08-02T12:52:01.094Z,5.00
2022-08-02T12:54:46.826Z,4.72
2022-08-02T12:57:48.271Z,7.35
2022-08-02T13:00:30.431Z,4.57
2022-08-02T13:04:11.063Z,4.97
2022-08-02T13:06:44.343Z,7.65
2022-08-02T13:09:20.610Z,9.43
2022-08-02T13:12:10.856Z,10.05
2022-08-02T13:14:42.511Z,14.82
2022-08-02T13:17:22.130Z,15.68
2022-08-02T13:19:54.403Z,15.07
2022-08-02T13:22:28.721Z,23.40
2022-08-02T13:24:59.022Z,22.65
2022-08-02T13:27:40.575Z,13.43
2022-08-02T13:30:17.384Z,10.43
2022-08-02T13:33:32.625Z,9.02
2022-08-02T13:36:09.265Z,7.25
2022-08-02T13:39:05.319Z,5.47
2022-08-02T13:41:45.865Z,4.32
2022-08-02T13:44:19.575Z,3.38
2022-08-02T13:46:50.112Z,3.40
2022-08-02T13:49:50.841Z,3.90
2022-08-02T13:52:31.270Z,4.68
2022-08-02T13:55:12.423Z,3.95
2022-08-02T13:58:08.201Z,3.92
2022-08-02T14:01:04.408Z,4.32
2022-08-02T14:04:08.001Z,5.68
2022-08-02T14:06:36.464Z,7.82
2022-08-02T14:09:15.703Z,8.02
2022-08-02T14:14:56.134Z,5.50
2022-08-02T14:17:29.331Z,6.17
2022-08-02T14:20:29.846Z,5.13
2022-08-02T14:23:00.681Z,6.00
2022-08-02T14:26:00.328Z,5.47
2022-08-02T14:28:35.871Z,4.47
2022-08-02T14:31:11.715Z,5.05
2022-08-02T14:33:42.433Z,4.15
2022-08-02T14:36:13.080Z,4.57
2022-08-02T14:38:50.891Z,4.78
2022-08-02T14:41:25.072Z,5.28
2022-08-02T14:44:12.067Z,3.83
2022-08-02T14:46:44.776Z,2.97
2022-08-02T14:49:24.463Z,2.75
2022-08-02T14:52:32.140Z,4.13
2022-08-02T14:55:12.008Z,3.92
2022-08-02T14:57:46.992Z,3.80
2022-08-02T15:00:23.789Z,2.60
2022-08-02T15:02:59.733Z,3.10
2022-08-02T15:05:35.294Z,3.00
2022-08-02T15:08:19.164Z,2.67
2022-08-02T15:10:57.097Z,2.25
2022-08-02T15:13:29.859Z,1.80
2022-08-02T15:16:03.619Z,2.00
2022-08-02T15:18:34.876Z,1.50
2022-08-02T15:21:08.844Z,1.98
2022-08-02T15:24:00.933Z,1.40
2022-08-02T15:26:31.121Z,2.08
2022-08-02T15:29:04.945Z,1.40
2022-08-02T15:31:44.593Z,1.10
2022-08-02T15:34:18.864Z,0.95
2022-08-02T15:37:01.342Z,1.20
2022-08-02T15:39:38.061Z,0.50
2022-08-02T15:42:20.588Z,0.50
2022-08-02T15:45:07.516Z,0.50
2022-08-02T15:48:25.540Z,0.45
2022-08-02T15:51:08.391Z,0.63
2022-08-02T15:53:42.018Z,0.40
2022-08-02T15:56:27.399Z,0.30
2022-08-02T15:59:19.602Z,0.50
2022-08-02T16:02:01.680Z,1.00
2022-08-02T16:04:35.092Z,0.50
2022-08-02T16:07:32.496Z,0.60
2022-08-02T16:12:46.779Z,0.68
2022-08-02T16:18:45.036Z,0.82
2022-08-02T16:21:38.654Z,0.63
2022-08-02T16:24:13.630Z,0.50
2022-08-02T16:26:53.254Z,0.40
2022-08-02T16:29:23.981Z,0.40
2022-08-02T16:32:04.736Z,0.25
2022-08-02T16:34:56.774Z,0.40
2022-08-02T16:46:56.965Z,0.40
2022-08-02T19:03:37.619Z,0.20
2022-08-02T20:07:04.026Z,0.60
2022-08-02T20:09:46.854Z,0.40
2022-08-02T20:12:18.243Z,0.38
2022-08-02T20:14:51.209Z,0.40
2022-08-02T20:17:22.655Z,0.40
2022-08-02T20:19:54.683Z,0.70
2022-08-02T20:26:02.375Z,0.45
2022-08-02T20:28:36.577Z,0.40
2022-08-02T20:31:09.898Z,0.55
2022-08-02T20:33:55.935Z,0.85
2022-08-02T20:36:28.199Z,0.53
2022-08-02T20:38:58.571Z,0.47
2022-08-02T20:41:36.405Z,0.40
2022-08-02T20:44:16.087Z,0.75
2022-08-02T20:47:14.521Z,0.68
2022-08-02T20:53:36.775Z,0.40
2022-08-02T21:14:09.229Z,0.57
2022-08-02T21:30:39.950Z,1.98
2022-08-02T21:39:05.845Z,0.60
2022-08-02T21:41:59.440Z,1.02
2022-08-02T21:44:31.770Z,0.50
2022-08-02T21:47:08.404Z,0.47
2022-08-02T21:50:12.969Z,1.20
2022-08-02T21:52:52.094Z,0.80
2022-08-02T21:56:02.572Z,0.60
2022-08-02T21:58:21.693Z,0.70
2022-08-02T22:01:28.606Z,0.63
2022-08-02T22:07:58.433Z,0.70
2022-08-02T22:11:17.369Z,0.73
2022-08-02T22:13:54.639Z,0.77
2022-08-02T22:19:40.081Z,0.70
2022-08-02T22:22:28.030Z,0.70
2022-08-02T22:25:05.092Z,0.80
2022-08-02T22:28:35.392Z,1.00
2022-08-02T22:30:35.097Z,1.10
2022-08-02T22:33:31.416Z,0.80
2022-08-02T22:39:19.387Z,1.27
2022-08-02T22:42:06.078Z,0.75
2022-08-02T22:47:38.692Z,0.75
2022-08-02T22:50:21.371Z,0.98
2022-08-02T22:52:52.917Z,1.10
2022-08-02T22:55:32.511Z,1.00
2022-08-02T22:58:05.817Z,1.80
2022-08-02T22:59:02.780Z,0.60
2022-08-02T22:59:07.950Z,0.68
2022-08-02T23:00:37.052Z,0.90
2022-08-02T23:03:08.009Z,1.30
2022-08-02T23:05:38.338Z,1.80
2022-08-02T23:08:17.716Z,0.90
2022-08-02T23:10:51.095Z,1.20
2022-08-02T23:13:24.288Z,1.00
2022-08-02T23:16:42.557Z,1.08
2022-08-02T23:19:45.263Z,1.08
2022-08-02T23:22:15.869Z,1.00
2022-08-02T23:25:12.789Z,0.90
2022-08-02T23:30:46.360Z,1.10
2022-08-02T23:36:19.763Z,1.42
2022-08-02T23:41:43.526Z,0.82
2022-08-02T23:44:16.660Z,0.75
2022-08-02T23:46:58.432Z,0.88
2022-08-02T23:49:29.105Z,1.00
2022-08-02T23:52:02.263Z,1.02
2022-08-02T23:54:32.775Z,0.88
2022-08-02T23:57:20.743Z,1.23
2022-08-02T23:59:53.848Z,1.30
